Time;durP1;ratioP1;P1;durP2;ratioP2;P2;SDS_P1;SDS_P2;PMS_P1;PMS_P2;Temp;Humidity;BMP_temperature;BMP_pressure;BME280_temperature;BME280_humidity;BME280_pressure;Samples;Min_cycle;Max_cycle;Signal;HPM_P1;HPM_P2
2022/05/04 00:00:09;;;;;;;7.18;4.32;;;;;;;;;;512844;28;1474;-85
2022/05/04 00:00:24;;;;;;;7.25;4.40;;;;;;;;;;511287;28;1449;-85
2022/05/04 00:00:39;;;;;;;5.43;4.30;;;;;;;;;;510828;29;1541;-85
2022/05/04 00:00:55;;;;;;;5.03;4.20;;;;;;;;;;512127;28;1465;-85
2022/05/04 00:01:10;;;;;;;5.72;4.35;;;;;;;;;;510841;29;1657;-85
2022/05/04 00:01:26;;;;;;;6.23;4.30;;;;;;;;;;510554;28;1420;-85
2022/05/04 00:01:41;;;;;;;6.00;4.33;;;;;;;;;;513619;28;1786;-85
2022/05/04 00:01:56;;;;;;;5.90;4.60;;;;;;;;;;514174;28;1429;-85
2022/05/04 00:02:12;;;;;;;6.40;4.70;;;;;;;;;;514971;28;1480;-85
2022/05/04 00:02:27;;;;;;;6.60;4.50;;;;;;;;;;514544;28;1860;-85
2022/05/04 00:02:42;;;;;;;6.07;4.60;;;;;;;;;;513556;28;1510;-85
2022/05/04 00:02:58;;;;;;;6.10;4.60;;;;;;;;;;516628;28;1596;-85
2022/05/04 00:03:13;;;;;;;7.57;4.63;;;;;;;;;;514981;28;1511;-85
2022/05/04 00:03:29;;;;;;;7.30;4.53;;;;;;;;;;515025;28;1434;-85
2022/05/04 00:03:44;;;;;;;5.47;4.30;;;;;;;;;;514600;28;1751;-85
2022/05/04 00:03:59;;;;;;;5.55;4.43;;;;;;;;;;512713;28;1481;-85
2022/05/04 00:04:15;;;;;;;5.90;4.30;;;;;;;;;;511244;29;1478;-85
2022/05/04 00:04:30;;;;;;;7.57;4.35;;;;;;;;;;511620;28;1549;-85
2022/05/04 00:04:45;;;;;;;7.50;4.70;;;;;;;;;;510549;28;1469;-85
2022/05/04 00:05:01;;;;;;;6.20;4.70;;;;;;;;;;510475;28;1350;-85
2022/05/04 00:05:17;;;;;;;6.47;4.78;;;;;;;;;;512659;28;1791;-88
2022/05/04 00:05:32;;;;;;;7.03;4.80;;;;;;;;;;513094;28;1509;-85
2022/05/04 00:05:48;;;;;;;6.65;4.80;;;;;;;;;;513200;28;1512;-85
2022/05/04 00:06:04;;;;;;;6.53;4.88;;;;;;;;;;513782;28;1204;-85
2022/05/04 00:06:19;;;;;;;7.03;4.77;;;;;;;;;;513000;28;1258;-85
2022/05/04 00:06:35;;;;;;;6.68;4.80;;;;;;;;;;511765;28;1158;-85
2022/05/04 00:06:50;;;;;;;6.60;4.90;;;;;;;;;;515892;28;1216;-85
2022/05/04 00:07:05;;;;;;;6.53;4.80;;;;;;;;;;515587;28;1258;-85
2022/05/04 00:07:21;;;;;;;6.77;4.70;;;;;;;;;;515637;28;1157;-85
2022/05/04 00:07:37;;;;;;;6.75;4.97;;;;;;;;;;515571;28;1207;-85
2022/05/04 00:07:52;;;;;;;6.63;4.90;;;;;;;;;;515032;28;1628;-85
2022/05/04 00:08:08;;;;;;;6.45;4.40;;;;;;;;;;516659;28;1370;-85
2022/05/04 00:08:23;;;;;;;6.47;4.43;;;;;;;;;;515323;28;1574;-85
2022/05/04 00:08:38;;;;;;;7.72;4.72;;;;;;;;;;515724;28;1619;-85
2022/05/04 00:08:54;;;;;;;7.30;4.80;;;;;;;;;;516504;28;1554;-85
2022/05/04 00:09:09;;;;;;;7.30;4.82;;;;;;;;;;514174;28;1438;-85
2022/05/04 00:09:24;;;;;;;7.67;4.87;;;;;;;;;;513752;28;1706;-85
2022/05/04 00:09:40;;;;;;;6.60;4.47;;;;;;;;;;513090;28;1437;-85
2022/05/04 00:09:58;;;;;;;7.70;4.43;;;;;;;;;;513015;28;1489;-85
2022/05/04 00:10:14;;;;;;;7.20;4.70;;;;;;;;;;513101;28;1604;-86
2022/05/04 00:10:30;;;;;;;6.20;4.53;;;;;;;;;;514750;28;1619;-85
2022/05/04 00:10:45;;;;;;;6.93;4.60;;;;;;;;;;515329;28;1569;-85
2022/05/04 00:11:02;;;;;;;5.97;4.47;;;;;;;;;;514660;28;1397;-85
2022/05/04 00:11:17;;;;;;;5.07;4.50;;;;;;;;;;515333;28;1897;-85
2022/05/04 00:11:33;;;;;;;5.47;4.67;;;;;;;;;;516461;28;1392;-85
2022/05/04 00:11:48;;;;;;;6.70;4.70;;;;;;;;;;517959;28;1480;-85
2022/05/04 00:12:04;;;;;;;6.50;4.60;;;;;;;;;;518412;28;1436;-85
2022/05/04 00:12:19;;;;;;;6.35;4.55;;;;;;;;;;517426;28;1892;-85
2022/05/04 00:12:36;;;;;;;7.50;4.47;;;;;;;;;;517405;28;1528;-85
2022/05/04 00:12:51;;;;;;;8.00;4.70;;;;;;;;;;518172;28;1494;-85
2022/05/04 00:13:06;;;;;;;6.55;4.50;;;;;;;;;;515734;28;1530;-85
2022/05/04 00:13:22;;;;;;;5.43;4.20;;;;;;;;;;516297;28;1441;-85
2022/05/04 00:13:37;;;;;;;5.88;4.20;;;;;;;;;;516065;28;1680;-85
2022/05/04 00:13:53;;;;;;;5.67;4.30;;;;;;;;;;517015;28;1275;-85
2022/05/04 00:14:08;;;;;;;5.57;4.68;;;;;;;;;;515400;28;1540;-85
2022/05/04 00:14:25;;;;;;;6.03;4.50;;;;;;;;;;515596;28;1374;-85
2022/05/04 00:14:40;;;;;;;6.20;4.20;;;;;;;;;;515839;28;1884;-85
2022/05/04 00:14:56;;;;;;;6.33;4.20;;;;;;;;;;517137;28;1414;-85
2022/05/04 00:15:11;;;;;;;6.03;4.47;;;;;;;;;;514065;28;1500;-85
2022/05/04 00:15:27;;;;;;;6.57;4.80;;;;;;;;;;512398;28;1602;-85
2022/05/04 00:15:43;;;;;;;7.22;4.95;;;;;;;;;;513518;28;1564;-85
2022/05/04 00:16:01;;;;;;;7.05;4.60;;;;;;;;;;512878;28;1482;-85
2022/05/04 00:16:16;;;;;;;6.20;4.53;;;;;;;;;;510799;29;1361;-85
2022/05/04 00:16:32;;;;;;;6.97;4.60;;;;;;;;;;508780;29;1457;-85
2022/05/04 00:16:47;;;;;;;7.87;4.60;;;;;;;;;;508501;29;1588;-85
2022/05/04 00:17:03;;;;;;;8.70;4.53;;;;;;;;;;511041;29;1483;-85
2022/05/04 00:17:18;;;;;;;8.13;4.57;;;;;;;;;;511150;29;1473;-85
2022/05/04 00:17:34;;;;;;;7.25;5.00;;;;;;;;;;511945;28;1363;-85
2022/05/04 00:17:49;;;;;;;8.40;4.90;;;;;;;;;;513740;28;1364;-85
2022/05/04 00:18:04;;;;;;;9.50;4.75;;;;;;;;;;514258;28;1871;-85
2022/05/04 00:18:20;;;;;;;8.23;4.90;;;;;;;;;;516622;28;1354;-85
2022/05/04 00:18:36;;;;;;;6.82;5.05;;;;;;;;;;516733;28;1683;-85
2022/05/04 00:18:51;;;;;;;7.55;5.22;;;;;;;;;;517181;28;1970;-85
2022/05/04 00:19:07;;;;;;;6.97;4.77;;;;;;;;;;516920;28;1566;-85
2022/05/04 00:19:22;;;;;;;6.67;4.53;;;;;;;;;;515645;28;1988;-85
2022/05/04 00:19:37;;;;;;;7.45;4.53;;;;;;;;;;513273;28;1575;-85
2022/05/04 00:19:54;;;;;;;6.83;4.50;;;;;;;;;;513228;28;1844;-85
2022/05/04 00:20:10;;;;;;;6.72;4.70;;;;;;;;;;511081;28;1394;-85
2022/05/04 00:20:25;;;;;;;5.63;4.50;;;;;;;;;;511203;28;1347;-85
2022/05/04 00:20:41;;;;;;;4.80;4.28;;;;;;;;;;513257;28;1425;-85
2022/05/04 00:20:57;;;;;;;5.83;4.37;;;;;;;;;;512899;28;1321;-85
2022/05/04 00:21:12;;;;;;;5.38;4.30;;;;;;;;;;514048;28;1531;-85
2022/05/04 00:21:28;;;;;;;5.40;4.20;;;;;;;;;;512908;28;1752;-86
2022/05/04 00:21:43;;;;;;;5.78;4.18;;;;;;;;;;512547;28;1425;-84
2022/05/04 00:21:58;;;;;;;6.00;4.23;;;;;;;;;;512356;28;1570;-86
2022/05/04 00:22:21;;;;;;;6.20;4.27;;;;;;;;;;515145;28;1355;-85
2022/05/04 00:22:37;;;;;;;6.55;4.32;;;;;;;;;;515329;28;1750;-85
2022/05/04 00:22:52;;;;;;;5.20;4.20;;;;;;;;;;514378;28;1480;-85
2022/05/04 00:23:08;;;;;;;4.57;4.10;;;;;;;;;;515155;28;1569;-85
2022/05/04 00:23:25;;;;;;;5.03;4.20;;;;;;;;;;515136;28;1578;-85
2022/05/04 00:23:43;;;;;;;5.90;4.38;;;;;;;;;;514355;28;1440;-85
2022/05/04 00:23:58;;;;;;;5.65;4.28;;;;;;;;;;513063;28;1439;-85
2022/05/04 00:24:14;;;;;;;6.30;4.47;;;;;;;;;;512240;28;1521;-85
2022/05/04 00:24:30;;;;;;;5.60;4.53;;;;;;;;;;512972;28;1398;-85
2022/05/04 00:24:46;;;;;;;6.23;4.70;;;;;;;;;;512710;28;1560;-85
2022/05/04 00:25:03;;;;;;;6.00;4.60;;;;;;;;;;512870;28;1497;-85
2022/05/04 00:25:18;;;;;;;4.97;4.30;;;;;;;;;;513063;28;1905;-84
2022/05/04 00:25:33;;;;;;;5.53;4.45;;;;;;;;;;512715;28;1588;-85
2022/05/04 00:25:49;;;;;;;7.43;4.77;;;;;;;;;;511160;28;1510;-85
2022/05/04 00:26:05;;;;;;;7.50;4.60;;;;;;;;;;513672;28;1539;-85
2022/05/04 00:26:20;;;;;;;6.03;4.68;;;;;;;;;;514657;28;1416;-85
2022/05/04 00:26:45;;;;;;;5.90;4.80;;;;;;;;;;514957;28;1498;-85
2022/05/04 00:27:00;;;;;;;6.78;4.88;;;;;;;;;;513578;28;1771;-85
2022/05/04 00:27:16;;;;;;;6.63;5.00;;;;;;;;;;512533;28;1372;-85
2022/05/04 00:27:33;;;;;;;6.73;5.00;;;;;;;;;;514830;28;1500;-85
2022/05/04 00:27:48;;;;;;;6.18;4.90;;;;;;;;;;519011;28;1591;-86
2022/05/04 00:28:04;;;;;;;6.85;5.10;;;;;;;;;;517292;28;1482;-85
2022/05/04 00:28:20;;;;;;;7.05;5.05;;;;;;;;;;517142;28;1412;-85
2022/05/04 00:28:35;;;;;;;7.10;5.00;;;;;;;;;;517732;28;1640;-85
2022/05/04 00:28:50;;;;;;;6.97;4.82;;;;;;;;;;518232;28;1622;-85
2022/05/04 00:29:06;;;;;;;6.87;4.70;;;;;;;;;;517857;28;1444;-85
2022/05/04 00:29:24;;;;;;;7.93;4.72;;;;;;;;;;518218;28;1466;-85
2022/05/04 00:29:39;;;;;;;7.35;4.70;;;;;;;;;;515482;28;1314;-85
2022/05/04 00:29:55;;;;;;;6.50;4.70;;;;;;;;;;512944;28;1642;-85
2022/05/04 00:30:10;;;;;;;6.47;4.90;;;;;;;;;;514387;28;1440;-85
2022/05/04 00:30:26;;;;;;;6.13;5.13;;;;;;;;;;514317;28;1945;-85
2022/05/04 00:30:45;;;;;;;6.15;4.93;;;;;;;;;;515311;28;1455;-85
2022/05/04 00:31:00;;;;;;;8.82;5.10;;;;;;;;;;515034;28;1516;-85
2022/05/04 00:31:15;;;;;;;8.80;5.05;;;;;;;;;;513163;28;1539;-85
2022/05/04 00:31:31;;;;;;;6.83;4.60;;;;;;;;;;510813;28;1432;-85
2022/05/04 00:31:46;;;;;;;6.60;4.60;;;;;;;;;;512035;28;1740;-85
2022/05/04 00:32:01;;;;;;;7.05;4.80;;;;;;;;;;511166;29;1474;-85
2022/05/04 00:32:17;;;;;;;6.70;4.87;;;;;;;;;;511392;29;1724;-85
2022/05/04 00:32:32;;;;;;;6.38;4.90;;;;;;;;;;511360;29;1493;-85
2022/05/04 00:32:51;;;;;;;7.07;5.00;;;;;;;;;;510825;29;1751;-85
2022/05/04 00:33:06;;;;;;;8.23;5.25;;;;;;;;;;511762;28;1792;-84
2022/05/04 00:33:22;;;;;;;8.07;5.22;;;;;;;;;;513563;28;1559;-85
2022/05/04 00:33:37;;;;;;;7.23;4.97;;;;;;;;;;513680;28;1456;-85
2022/05/04 00:33:53;;;;;;;7.13;4.93;;;;;;;;;;515495;28;1409;-85
2022/05/04 00:34:08;;;;;;;6.60;5.10;;;;;;;;;;517254;28;1467;-85
2022/05/04 00:34:23;;;;;;;7.53;4.97;;;;;;;;;;516860;28;1542;-84
2022/05/04 00:34:39;;;;;;;7.33;4.90;;;;;;;;;;517853;28;1784;-84
2022/05/04 00:34:55;;;;;;;7.35;5.00;;;;;;;;;;515589;28;1691;-84
2022/05/04 00:35:10;;;;;;;7.23;5.00;;;;;;;;;;516653;28;1424;-84
2022/05/04 00:35:25;;;;;;;6.60;5.00;;;;;;;;;;515091;28;1584;-82
2022/05/04 00:35:41;;;;;;;7.43;5.00;;;;;;;;;;518061;28;1846;-82
2022/05/04 00:35:56;;;;;;;7.60;4.80;;;;;;;;;;517204;28;1314;-86
2022/05/04 00:36:12;;;;;;;7.80;4.80;;;;;;;;;;517768;28;1828;-86
2022/05/04 00:36:27;;;;;;;8.20;4.97;;;;;;;;;;514147;28;1488;-82
2022/05/04 00:36:43;;;;;;;8.40;5.22;;;;;;;;;;514777;28;1693;-82
2022/05/04 00:37:04;;;;;;;7.77;5.50;;;;;;;;;;515203;28;1429;-83
2022/05/04 00:37:20;;;;;;;6.72;5.22;;;;;;;;;;516691;28;1770;-83
2022/05/04 00:37:35;;;;;;;6.73;5.10;;;;;;;;;;516954;28;1530;-83
2022/05/04 00:37:53;;;;;;;7.40;5.13;;;;;;;;;;517493;28;1610;-82
2022/05/04 00:38:09;;;;;;;7.50;5.00;;;;;;;;;;515735;28;1573;-83
2022/05/04 00:38:24;;;;;;;6.57;4.80;;;;;;;;;;516915;28;975;-83
2022/05/04 00:38:39;;;;;;;7.78;4.65;;;;;;;;;;519072;28;1524;-83
2022/05/04 00:38:55;;;;;;;7.43;4.73;;;;;;;;;;516897;28;1914;-83
2022/05/04 00:39:10;;;;;;;6.10;4.90;;;;;;;;;;515844;28;1633;-82
2022/05/04 00:39:26;;;;;;;6.25;5.00;;;;;;;;;;514538;28;1456;-82
2022/05/04 00:39:41;;;;;;;6.57;5.07;;;;;;;;;;514490;28;1665;-82
2022/05/04 00:39:57;;;;;;;7.80;5.22;;;;;;;;;;516565;28;1436;-82
2022/05/04 00:40:12;;;;;;;8.73;5.20;;;;;;;;;;515941;28;1663;-82
2022/05/04 00:40:27;;;;;;;7.50;5.13;;;;;;;;;;516556;28;1401;-82
2022/05/04 00:40:44;;;;;;;6.07;5.10;;;;;;;;;;516615;28;1839;-82
2022/05/04 00:40:59;;;;;;;6.13;4.90;;;;;;;;;;516665;28;1824;-82
2022/05/04 00:41:15;;;;;;;6.83;5.10;;;;;;;;;;516470;28;1618;-83
2022/05/04 00:41:30;;;;;;;7.17;5.20;;;;;;;;;;516579;28;1443;-82
2022/05/04 00:41:45;;;;;;;6.57;5.05;;;;;;;;;;515440;28;1448;-82
2022/05/04 00:42:15;;;;;;;6.80;5.00;;;;;;;;;;514339;28;1486;-82
2022/05/04 00:42:32;;;;;;;7.15;5.00;;;;;;;;;;514697;28;2089;-82
2022/05/04 00:42:48;;;;;;;7.80;5.07;;;;;;;;;;514033;28;1552;-83
2022/05/04 00:43:03;;;;;;;8.57;5.00;;;;;;;;;;515004;28;1503;-82
2022/05/04 00:43:23;;;;;;;7.95;4.90;;;;;;;;;;516163;28;1659;-83
2022/05/04 00:43:39;;;;;;;7.43;4.93;;;;;;;;;;516864;28;1581;-82
2022/05/04 00:43:54;;;;;;;6.27;5.17;;;;;;;;;;516092;28;1631;-82
2022/05/04 00:44:10;;;;;;;6.65;5.25;;;;;;;;;;516363;28;1518;-83
2022/05/04 00:44:25;;;;;;;8.33;5.30;;;;;;;;;;513563;28;1444;-82
2022/05/04 00:44:42;;;;;;;9.20;5.22;;;;;;;;;;512339;28;1432;-82
2022/05/04 00:44:57;;;;;;;8.07;4.93;;;;;;;;;;513694;28;1741;-82
2022/05/04 00:45:13;;;;;;;6.67;5.07;;;;;;;;;;513121;28;1528;-81
2022/05/04 00:45:28;;;;;;;6.33;5.27;;;;;;;;;;513947;28;1605;-82
2022/05/04 00:45:43;;;;;;;7.18;5.38;;;;;;;;;;514288;28;1408;-82
2022/05/04 00:45:59;;;;;;;6.80;5.30;;;;;;;;;;514360;28;1501;-82
2022/05/04 00:46:14;;;;;;;6.28;5.20;;;;;;;;;;514279;28;1455;-82
2022/05/04 00:46:29;;;;;;;7.27;5.27;;;;;;;;;;514631;28;1771;-82
2022/05/04 00:46:45;;;;;;;7.47;5.20;;;;;;;;;;514312;28;1515;-82
2022/05/04 00:47:01;;;;;;;7.68;5.18;;;;;;;;;;514241;28;1751;-82
2022/05/04 00:47:18;;;;;;;8.07;5.38;;;;;;;;;;516392;28;1375;-82
2022/05/04 00:47:33;;;;;;;8.38;5.40;;;;;;;;;;515629;28;1579;-82
2022/05/04 00:47:49;;;;;;;8.00;5.20;;;;;;;;;;515163;28;1422;-82
2022/05/04 00:48:05;;;;;;;7.55;5.20;;;;;;;;;;516099;28;1306;-83
2022/05/04 00:48:20;;;;;;;7.73;5.30;;;;;;;;;;515225;28;1471;-83
2022/05/04 00:48:35;;;;;;;6.72;5.03;;;;;;;;;;513647;28;1318;-83
2022/05/04 00:48:51;;;;;;;6.67;4.93;;;;;;;;;;513404;28;1448;-83
2022/05/04 00:49:06;;;;;;;6.60;4.93;;;;;;;;;;510017;28;1592;-83
2022/05/04 00:49:22;;;;;;;7.40;4.93;;;;;;;;;;510186;29;1661;-83
2022/05/04 00:49:39;;;;;;;8.17;5.17;;;;;;;;;;512403;28;1947;-83
2022/05/04 00:49:55;;;;;;;6.32;5.20;;;;;;;;;;513778;28;1730;-83
2022/05/04 00:50:12;;;;;;;5.78;5.18;;;;;;;;;;511947;28;1771;-83
2022/05/04 00:50:27;;;;;;;6.50;5.30;;;;;;;;;;512772;28;1445;-83
2022/05/04 00:50:48;;;;;;;7.17;5.23;;;;;;;;;;515821;28;1646;-83
2022/05/04 00:51:03;;;;;;;6.93;5.35;;;;;;;;;;516436;28;1956;-83
2022/05/04 00:51:19;;;;;;;6.70;5.40;;;;;;;;;;518254;28;1520;-83
2022/05/04 00:51:35;;;;;;;7.25;5.22;;;;;;;;;;517509;28;1524;-83
2022/05/04 00:51:51;;;;;;;7.25;5.10;;;;;;;;;;517370;28;1926;-83
2022/05/04 00:52:08;;;;;;;7.45;5.20;;;;;;;;;;516459;28;1562;-85
2022/05/04 00:52:24;;;;;;;7.75;5.13;;;;;;;;;;517329;28;1977;-84
2022/05/04 00:52:43;;;;;;;7.30;5.10;;;;;;;;;;517601;28;1699;-84
2022/05/04 00:52:58;;;;;;;6.75;5.13;;;;;;;;;;517350;28;1475;-85
2022/05/04 00:53:14;;;;;;;7.40;5.30;;;;;;;;;;517541;28;1293;-84
2022/05/04 00:53:30;;;;;;;6.85;5.38;;;;;;;;;;517771;28;1824;-84
2022/05/04 00:53:46;;;;;;;6.80;5.53;;;;;;;;;;518180;28;1283;-84
2022/05/04 00:54:03;;;;;;;7.35;5.60;;;;;;;;;;518624;28;1589;-84
2022/05/04 00:54:19;;;;;;;8.30;5.53;;;;;;;;;;519656;28;1422;-84
2022/05/04 00:54:35;;;;;;;7.05;5.30;;;;;;;;;;519013;28;1581;-84
2022/05/04 00:54:51;;;;;;;6.53;5.20;;;;;;;;;;519111;28;1620;-85
2022/05/04 00:55:08;;;;;;;6.55;5.10;;;;;;;;;;516611;28;1365;-85
2022/05/04 00:55:24;;;;;;;7.22;5.30;;;;;;;;;;518051;28;1843;-84
2022/05/04 00:55:39;;;;;;;7.40;5.40;;;;;;;;;;518493;28;1497;-84
2022/05/04 00:55:59;;;;;;;6.72;5.30;;;;;;;;;;517456;28;1785;-84
2022/05/04 00:56:15;;;;;;;8.05;5.20;;;;;;;;;;515610;28;1154;-84
2022/05/04 00:56:31;;;;;;;9.00;5.43;;;;;;;;;;513702;28;1185;-84
2022/05/04 00:56:47;;;;;;;9.53;5.43;;;;;;;;;;513697;28;1236;-84
2022/05/04 00:57:03;;;;;;;9.55;5.20;;;;;;;;;;513675;28;948;-84
2022/05/04 00:58:54;;;;;;;8.60;5.22;;;;;;;;;;511592;29;1229;-85
2022/05/04 00:59:07;;;;;;;6.97;5.63;;;;;;;;;;517251;28;1201;-84
2022/05/04 00:59:22;;;;;;;7.25;5.78;;;;;;;;;;519011;28;1471;-84
2022/05/04 00:59:38;;;;;;;7.72;5.70;;;;;;;;;;518382;28;1732;-85
2022/05/04 00:59:53;;;;;;;7.22;5.65;;;;;;;;;;518975;28;1383;-84
2022/05/04 01:00:10;;;;;;;6.90;5.60;;;;;;;;;;518713;28;1497;-84
2022/05/04 01:00:29;;;;;;;6.57;5.40;;;;;;;;;;518827;28;1487;-84
2022/05/04 01:00:48;;;;;;;7.50;5.47;;;;;;;;;;519523;28;1299;-84
2022/05/04 01:01:04;;;;;;;7.28;5.43;;;;;;;;;;515961;28;1373;-84
2022/05/04 01:01:24;;;;;;;7.43;5.40;;;;;;;;;;516279;28;1673;-84
2022/05/04 01:01:39;;;;;;;7.40;5.57;;;;;;;;;;516897;28;1477;-84
2022/05/04 01:01:56;;;;;;;7.87;5.80;;;;;;;;;;516816;28;1484;-84
2022/05/04 01:02:11;;;;;;;7.72;5.72;;;;;;;;;;517778;28;2159;-84
2022/05/04 01:02:26;;;;;;;7.33;5.80;;;;;;;;;;517952;28;1424;-84
2022/05/04 01:02:42;;;;;;;7.53;5.87;;;;;;;;;;516677;28;1451;-84
2022/05/04 01:02:57;;;;;;;8.20;5.88;;;;;;;;;;517722;28;1605;-84
2022/05/04 01:03:13;;;;;;;8.20;5.70;;;;;;;;;;516244;28;1511;-85
2022/05/04 01:03:28;;;;;;;6.90;5.37;;;;;;;;;;516511;28;1758;-84
2022/05/04 01:03:44;;;;;;;7.07;5.57;;;;;;;;;;515348;28;1519;-84
2022/05/04 01:03:59;;;;;;;7.90;5.70;;;;;;;;;;514842;28;1731;-84
2022/05/04 01:04:15;;;;;;;7.50;5.60;;;;;;;;;;515213;28;1552;-84
2022/05/04 01:04:30;;;;;;;7.03;5.50;;;;;;;;;;514947;28;1623;-85
2022/05/04 01:04:46;;;;;;;7.17;5.43;;;;;;;;;;512903;28;1555;-84
2022/05/04 01:05:01;;;;;;;8.35;5.78;;;;;;;;;;513247;28;1446;-84
2022/05/04 01:05:17;;;;;;;9.07;6.00;;;;;;;;;;515380;28;1495;-84
2022/05/04 01:05:32;;;;;;;7.95;5.95;;;;;;;;;;514983;28;1755;-84
2022/05/04 01:05:48;;;;;;;8.07;5.97;;;;;;;;;;515176;28;1460;-84
2022/05/04 01:06:03;;;;;;;8.20;5.77;;;;;;;;;;513528;28;1490;-84
2022/05/04 01:06:19;;;;;;;8.43;5.73;;;;;;;;;;512671;28;1305;-84
2022/05/04 01:06:34;;;;;;;7.80;5.80;;;;;;;;;;513893;28;1501;-84
2022/05/04 01:06:53;;;;;;;7.40;5.90;;;;;;;;;;513776;28;1727;-84
2022/05/04 01:07:08;;;;;;;7.68;6.18;;;;;;;;;;513281;28;1363;-84
2022/05/04 01:07:24;;;;;;;9.27;6.10;;;;;;;;;;512489;28;1531;-84
2022/05/04 01:07:41;;;;;;;10.23;5.93;;;;;;;;;;513119;28;1395;-84
2022/05/04 01:07:57;;;;;;;8.93;5.90;;;;;;;;;;513547;28;1430;-84
2022/05/04 01:08:12;;;;;;;8.23;5.90;;;;;;;;;;514069;28;1742;-85
2022/05/04 01:08:28;;;;;;;8.03;5.97;;;;;;;;;;514151;28;2075;-84
2022/05/04 01:08:43;;;;;;;7.28;6.07;;;;;;;;;;514189;28;1716;-84
2022/05/04 01:08:59;;;;;;;7.33;6.27;;;;;;;;;;513788;28;1593;-84
2022/05/04 01:09:15;;;;;;;7.82;6.18;;;;;;;;;;514854;28;1473;-84
2022/05/04 01:09:30;;;;;;;8.05;5.82;;;;;;;;;;515682;28;1445;-84
2022/05/04 01:09:45;;;;;;;7.40;5.73;;;;;;;;;;514710;28;1731;-84
2022/05/04 01:10:01;;;;;;;6.70;5.50;;;;;;;;;;514872;28;1403;-85
2022/05/04 01:10:17;;;;;;;7.10;5.65;;;;;;;;;;516083;28;1364;-84
2022/05/04 01:10:33;;;;;;;9.95;5.68;;;;;;;;;;515094;28;1426;-84
2022/05/04 01:10:48;;;;;;;9.35;5.60;;;;;;;;;;514906;28;1451;-84
2022/05/04 01:11:04;;;;;;;8.40;5.90;;;;;;;;;;515890;28;1385;-84
2022/05/04 01:11:21;;;;;;;9.25;5.90;;;;;;;;;;514442;28;1427;-84
2022/05/04 01:11:36;;;;;;;7.97;5.60;;;;;;;;;;514904;28;1459;-84
2022/05/04 01:11:52;;;;;;;8.47;5.60;;;;;;;;;;512257;28;1565;-84
2022/05/04 01:12:08;;;;;;;8.45;5.80;;;;;;;;;;512973;28;1488;-84
2022/05/04 01:12:23;;;;;;;8.05;5.88;;;;;;;;;;511581;28;1381;-84
2022/05/04 01:12:50;;;;;;;7.97;6.00;;;;;;;;;;510597;29;1603;-85
2022/05/04 01:13:05;;;;;;;7.53;5.95;;;;;;;;;;513107;28;1527;-85
2022/05/04 01:13:22;;;;;;;8.30;5.97;;;;;;;;;;510674;29;1461;-84
2022/05/04 01:13:37;;;;;;;7.88;5.90;;;;;;;;;;511348;28;1466;-84
2022/05/04 01:13:59;;;;;;;7.87;6.30;;;;;;;;;;513246;28;1540;-84
2022/05/04 01:14:17;;;;;;;8.10;6.07;;;;;;;;;;512920;28;1580;-84
2022/05/04 01:14:32;;;;;;;7.80;5.80;;;;;;;;;;515779;28;2239;-84
2022/05/04 01:14:47;;;;;;;6.97;5.90;;;;;;;;;;513745;28;1739;-84
2022/05/04 01:15:04;;;;;;;7.18;5.97;;;;;;;;;;515115;28;2233;-84
2022/05/04 01:15:21;;;;;;;8.98;5.90;;;;;;;;;;512822;28;1722;-85
2022/05/04 01:15:37;;;;;;;7.88;5.90;;;;;;;;;;515101;28;1727;-84
2022/05/04 01:15:52;;;;;;;8.40;6.18;;;;;;;;;;515781;28;1511;-84
2022/05/04 01:16:08;;;;;;;9.07;6.20;;;;;;;;;;515503;28;1720;-84
2022/05/04 01:16:23;;;;;;;7.68;6.07;;;;;;;;;;516394;28;1434;-84
2022/05/04 01:16:43;;;;;;;7.93;6.03;;;;;;;;;;514209;28;1408;-84
2022/05/04 01:16:58;;;;;;;10.00;6.57;;;;;;;;;;515246;28;1315;-84
2022/05/04 01:17:14;;;;;;;9.00;6.30;;;;;;;;;;514380;28;1372;-85
2022/05/04 01:17:29;;;;;;;8.80;5.85;;;;;;;;;;513771;28;1265;-84
2022/05/04 01:17:47;;;;;;;9.20;6.20;;;;;;;;;;513393;28;1325;-84
2022/05/04 01:18:03;;;;;;;7.90;6.10;;;;;;;;;;514116;28;1708;-84
2022/05/04 01:18:18;;;;;;;8.70;6.05;;;;;;;;;;513301;28;1680;-85
2022/05/04 01:18:34;;;;;;;9.57;6.20;;;;;;;;;;514719;28;1229;-84
2022/05/04 01:18:49;;;;;;;8.32;6.20;;;;;;;;;;516445;28;1942;-84
2022/05/04 01:19:06;;;;;;;8.75;6.20;;;;;;;;;;513310;28;2005;-84
2022/05/04 01:19:21;;;;;;;8.40;5.90;;;;;;;;;;513785;28;1374;-84
2022/05/04 01:19:39;;;;;;;6.50;5.80;;;;;;;;;;514921;28;1570;-85
2022/05/04 01:19:59;;;;;;;7.55;6.25;;;;;;;;;;511403;29;1284;-85
2022/05/04 01:20:18;;;;;;;8.30;6.80;;;;;;;;;;514403;28;1507;-84
2022/05/04 01:20:33;;;;;;;9.18;7.03;;;;;;;;;;512698;28;1509;-84
2022/05/04 01:20:48;;;;;;;9.93;6.90;;;;;;;;;;511980;28;1576;-84
2022/05/04 01:21:06;;;;;;;10.57;6.88;;;;;;;;;;511354;28;1446;-84
2022/05/04 01:21:21;;;;;;;9.18;6.45;;;;;;;;;;511511;28;1505;-84
2022/05/04 01:21:37;;;;;;;8.07;6.20;;;;;;;;;;512381;28;1588;-84
2022/05/04 01:21:52;;;;;;;7.82;6.03;;;;;;;;;;514064;28;1352;-84
2022/05/04 01:22:09;;;;;;;8.47;6.10;;;;;;;;;;513185;28;1384;-85
2022/05/04 01:22:25;;;;;;;8.85;6.25;;;;;;;;;;512948;28;1607;-85
2022/05/04 01:22:41;;;;;;;8.52;6.32;;;;;;;;;;512404;28;1536;-84
2022/05/04 01:22:57;;;;;;;7.83;6.40;;;;;;;;;;513445;28;1453;-84
2022/05/04 01:23:13;;;;;;;7.65;6.32;;;;;;;;;;514080;28;1540;-84
2022/05/04 01:23:28;;;;;;;8.20;6.28;;;;;;;;;;514855;28;1598;-84
2022/05/04 01:23:46;;;;;;;8.57;6.10;;;;;;;;;;518270;28;1512;-85
2022/05/04 01:24:02;;;;;;;8.60;6.18;;;;;;;;;;515936;28;1378;-84
2022/05/04 01:24:17;;;;;;;9.00;6.20;;;;;;;;;;512908;28;1377;-84
2022/05/04 01:24:33;;;;;;;8.88;6.40;;;;;;;;;;512392;28;1222;-84
2022/05/04 01:24:48;;;;;;;10.17;6.70;;;;;;;;;;512602;28;1560;-84
2022/05/04 01:25:04;;;;;;;10.77;6.60;;;;;;;;;;513255;28;1518;-84
2022/05/04 01:25:20;;;;;;;10.80;6.57;;;;;;;;;;513176;28;1492;-84
2022/05/04 01:25:36;;;;;;;10.45;6.53;;;;;;;;;;513107;28;1515;-84
2022/05/04 01:25:55;;;;;;;8.35;6.30;;;;;;;;;;513190;28;1371;-84
2022/05/04 01:26:13;;;;;;;9.10;6.55;;;;;;;;;;512764;28;1441;-85
2022/05/04 01:26:29;;;;;;;9.93;6.57;;;;;;;;;;513184;28;1544;-84
2022/05/04 01:26:44;;;;;;;8.20;6.22;;;;;;;;;;511192;29;1482;-84
2022/05/04 01:27:00;;;;;;;7.22;6.45;;;;;;;;;;512930;28;1433;-84
2022/05/04 01:27:15;;;;;;;9.00;6.70;;;;;;;;;;513347;28;1540;-84
2022/05/04 01:27:31;;;;;;;9.18;6.60;;;;;;;;;;511282;29;1550;-84
2022/05/04 01:27:49;;;;;;;8.50;6.70;;;;;;;;;;512077;28;1565;-84
2022/05/04 01:28:06;;;;;;;9.02;6.72;;;;;;;;;;509448;29;1500;-84
2022/05/04 01:28:21;;;;;;;9.98;6.65;;;;;;;;;;510777;28;1611;-84
2022/05/04 01:28:37;;;;;;;10.02;6.60;;;;;;;;;;512289;28;1533;-84
2022/05/04 01:28:53;;;;;;;8.37;6.70;;;;;;;;;;514797;28;1614;-84
2022/05/04 01:29:08;;;;;;;8.20;6.60;;;;;;;;;;511273;28;1602;-85
2022/05/04 01:29:23;;;;;;;8.70;6.73;;;;;;;;;;513173;28;1536;-85
2022/05/04 01:29:39;;;;;;;8.35;6.88;;;;;;;;;;514280;28;1422;-84
2022/05/04 01:29:54;;;;;;;7.97;6.63;;;;;;;;;;514079;28;1417;-84
2022/05/04 01:30:12;;;;;;;8.45;6.68;;;;;;;;;;513788;28;1519;-84
2022/05/04 01:30:30;;;;;;;9.30;6.82;;;;;;;;;;512425;28;1477;-84
2022/05/04 01:30:46;;;;;;;8.80;6.90;;;;;;;;;;512761;28;1389;-84
2022/05/04 01:31:01;;;;;;;9.93;6.90;;;;;;;;;;512457;28;1854;-84
2022/05/04 01:31:16;;;;;;;9.13;6.60;;;;;;;;;;514263;28;1583;-84
2022/05/04 01:31:32;;;;;;;7.50;6.47;;;;;;;;;;513629;28;1390;-85
2022/05/04 01:31:47;;;;;;;7.97;6.80;;;;;;;;;;513709;28;1555;-85
2022/05/04 01:32:06;;;;;;;9.27;7.22;;;;;;;;;;513880;28;1594;-85
2022/05/04 01:32:22;;;;;;;9.45;7.20;;;;;;;;;;515343;28;1489;-84
2022/05/04 01:32:37;;;;;;;7.68;6.75;;;;;;;;;;515665;28;1596;-84
2022/05/04 01:32:53;;;;;;;8.80;6.88;;;;;;;;;;515454;28;1557;-84
2022/05/04 01:33:10;;;;;;;9.30;7.10;;;;;;;;;;516405;28;1546;-84
2022/05/04 01:33:25;;;;;;;8.80;7.13;;;;;;;;;;515466;28;1449;-84
2022/05/04 01:33:41;;;;;;;9.75;7.30;;;;;;;;;;515265;28;1425;-85
2022/05/04 01:33:56;;;;;;;9.67;7.17;;;;;;;;;;515596;28;1467;-84
2022/05/04 01:34:13;;;;;;;9.45;6.97;;;;;;;;;;514734;28;1567;-84
2022/05/04 01:34:28;;;;;;;8.27;6.90;;;;;;;;;;515792;28;1730;-84
2022/05/04 01:34:44;;;;;;;8.88;6.97;;;;;;;;;;515725;28;1507;-84
2022/05/04 01:34:59;;;;;;;11.07;7.03;;;;;;;;;;515701;28;1588;-85
2022/05/04 01:35:15;;;;;;;10.57;7.32;;;;;;;;;;513963;28;1527;-84
2022/05/04 01:35:30;;;;;;;9.27;7.30;;;;;;;;;;515410;28;1456;-84
2022/05/04 01:35:48;;;;;;;8.88;7.20;;;;;;;;;;515946;28;1488;-84
2022/05/04 01:36:03;;;;;;;8.43;7.30;;;;;;;;;;514599;28;1425;-84
2022/05/04 01:36:19;;;;;;;9.05;7.20;;;;;;;;;;515486;28;1389;-84
2022/05/04 01:36:34;;;;;;;8.73;7.00;;;;;;;;;;515558;28;1530;-84
2022/05/04 01:36:50;;;;;;;8.98;7.00;;;;;;;;;;515436;28;1384;-84
2022/05/04 01:37:05;;;;;;;8.67;7.10;;;;;;;;;;513942;28;1473;-84
2022/05/04 01:37:20;;;;;;;8.50;7.10;;;;;;;;;;515663;28;1460;-84
2022/05/04 01:37:36;;;;;;;10.45;7.32;;;;;;;;;;513993;28;1579;-84
2022/05/04 01:37:51;;;;;;;10.63;7.37;;;;;;;;;;513307;28;1486;-84
2022/05/04 01:38:07;;;;;;;9.18;7.60;;;;;;;;;;513881;28;1302;-84
2022/05/04 01:38:23;;;;;;;9.90;7.57;;;;;;;;;;513906;28;1484;-84
2022/05/04 01:38:38;;;;;;;10.45;7.32;;;;;;;;;;513990;28;1497;-84
2022/05/04 01:38:54;;;;;;;9.52;7.50;;;;;;;;;;514773;28;1982;-84
2022/05/04 01:39:09;;;;;;;10.23;7.50;;;;;;;;;;513320;28;1794;-85
2022/05/04 01:39:25;;;;;;;10.13;7.45;;;;;;;;;;513875;28;1456;-85
2022/05/04 01:39:40;;;;;;;8.97;7.50;;;;;;;;;;514185;28;1865;-85
2022/05/04 01:39:55;;;;;;;8.75;7.40;;;;;;;;;;513930;28;1512;-86
2022/05/04 01:40:11;;;;;;;9.40;7.47;;;;;;;;;;514604;28;1622;-86
2022/05/04 01:40:26;;;;;;;10.37;7.70;;;;;;;;;;513030;28;1493;-86